createdAt,value
2023-04-26T00:00:04.269Z,42.79
2023-04-26T00:01:04.293Z,42.80
2023-04-26T00:02:05.306Z,42.80
2023-04-26T00:03:05.432Z,42.81
2023-04-26T00:04:04.601Z,42.81
2023-04-26T00:05:05.598Z,42.84
2023-04-26T00:06:04.365Z,42.81
2023-04-26T00:07:04.377Z,42.83
2023-04-26T00:08:05.414Z,42.82
2023-04-26T00:09:04.424Z,42.84
2023-04-26T00:10:05.459Z,42.81
2023-04-26T00:11:05.488Z,42.80
2023-04-26T00:12:05.490Z,42.81
2023-04-26T00:13:05.533Z,42.80
2023-04-26T00:14:05.574Z,42.82
2023-04-26T00:15:04.689Z,42.82
2023-04-26T00:16:05.694Z,42.83
2023-04-26T00:17:05.627Z,42.86
2023-04-26T00:18:04.700Z,42.84
2023-04-26T00:19:05.679Z,42.82
2023-04-26T00:20:05.718Z,42.82
2023-04-26T00:21:05.736Z,42.86
2023-04-26T00:22:05.761Z,42.86
2023-04-26T00:23:05.772Z,42.87
2023-04-26T00:24:05.808Z,42.83
2023-04-26T00:25:05.847Z,42.83
2023-04-26T00:26:05.894Z,42.82
2023-04-26T00:27:05.885Z,42.84
2023-04-26T00:28:05.906Z,42.82
2023-04-26T00:29:05.918Z,42.84
2023-04-26T00:30:05.976Z,42.87
2023-04-26T00:31:05.960Z,42.88
2023-04-26T00:32:06.095Z,42.85
2023-04-26T00:33:05.102Z,42.86
2023-04-26T00:34:06.030Z,42.88
2023-04-26T00:35:06.058Z,42.88
2023-04-26T00:36:05.094Z,42.87
2023-04-26T00:37:06.200Z,42.86
2023-04-26T00:38:06.526Z,42.85
2023-04-26T00:39:06.179Z,42.86
2023-04-26T00:40:06.193Z,42.85
2023-04-26T00:41:06.253Z,42.86
2023-04-26T00:42:05.248Z,42.85
2023-04-26T00:43:05.281Z,42.86
2023-04-26T00:44:05.301Z,42.86
2023-04-26T00:45:05.331Z,42.86
2023-04-26T00:46:05.425Z,42.81
2023-04-26T00:47:06.382Z,42.85
2023-04-26T00:48:05.447Z,42.85
2023-04-26T00:49:05.433Z,42.85
2023-04-26T00:50:06.465Z,42.80
2023-04-26T00:51:05.526Z,42.81
2023-04-26T00:52:06.520Z,42.88
2023-04-26T00:53:06.549Z,42.86
2023-04-26T00:54:05.586Z,42.82
2023-04-26T00:55:06.601Z,42.84
2023-04-26T00:56:06.775Z,42.82
2023-04-26T00:57:06.694Z,42.85
2023-04-26T00:58:05.700Z,42.86
2023-04-26T00:59:05.708Z,42.83
2023-04-26T01:00:06.733Z,42.83
2023-04-26T01:01:06.844Z,42.81
2023-04-26T01:02:05.840Z,42.83
2023-04-26T01:03:05.957Z,42.79
2023-04-26T01:04:06.992Z,42.80
2023-04-26T01:05:06.954Z,42.79
2023-04-26T01:06:05.851Z,42.80
2023-04-26T01:07:06.895Z,42.81
2023-04-26T01:08:05.934Z,42.82
2023-04-26T01:09:06.929Z,42.83
2023-04-26T01:10:07.493Z,42.78
2023-04-26T01:11:06.003Z,42.81
2023-04-26T01:12:07.032Z,42.81
2023-04-26T01:13:06.046Z,42.84
2023-04-26T01:14:06.122Z,42.84
2023-04-26T01:15:06.107Z,42.84
2023-04-26T01:16:07.134Z,42.86
2023-04-26T01:17:06.305Z,42.87
2023-04-26T01:18:06.265Z,42.86
2023-04-26T01:19:07.252Z,42.86
2023-04-26T01:20:06.308Z,42.85
2023-04-26T01:21:07.379Z,42.85
2023-04-26T01:22:07.381Z,42.84
2023-04-26T01:23:07.510Z,42.83
2023-04-26T01:24:07.451Z,42.82
2023-04-26T01:25:06.472Z,42.82
2023-04-26T01:26:07.866Z,42.84
2023-04-26T01:27:06.533Z,42.87
2023-04-26T01:28:07.559Z,42.85
2023-04-26T01:29:06.599Z,42.82
2023-04-26T01:30:06.644Z,42.86
2023-04-26T01:31:07.734Z,42.85
2023-04-26T01:32:06.700Z,42.84
2023-04-26T01:33:07.769Z,42.84
2023-04-26T01:34:07.796Z,42.84
2023-04-26T01:35:06.791Z,42.85
2023-04-26T01:36:06.837Z,42.85
2023-04-26T01:37:07.940Z,42.82
2023-04-26T01:38:06.918Z,42.85
2023-04-26T01:39:07.942Z,42.81
2023-04-26T01:40:08.008Z,42.85
2023-04-26T01:41:07.003Z,42.82
2023-04-26T01:42:07.046Z,42.86
2023-04-26T01:43:07.082Z,42.82
2023-04-26T01:44:08.102Z,42.82
2023-04-26T01:45:08.156Z,42.84
2023-04-26T01:46:07.204Z,42.83
2023-04-26T01:47:08.214Z,42.83
2023-04-26T01:48:08.345Z,42.85
2023-04-26T01:49:08.282Z,42.81
2023-04-26T01:50:08.911Z,42.81
2023-04-26T01:51:07.327Z,42.83
2023-04-26T01:52:08.350Z,42.82
2023-04-26T01:53:07.435Z,42.81
2023-04-26T01:54:08.426Z,42.81
2023-04-26T01:55:08.461Z,42.80
2023-04-26T01:56:08.489Z,42.82
2023-04-26T01:57:08.521Z,42.81
2023-04-26T01:58:07.549Z,42.80
2023-04-26T01:59:07.604Z,42.82
2023-04-26T02:00:07.645Z,42.81
2023-04-26T02:01:08.701Z,42.86
2023-04-26T02:02:08.733Z,42.83
2023-04-26T02:03:07.868Z,42.84
2023-04-26T02:04:08.762Z,42.81
2023-04-26T02:05:08.828Z,42.80
2023-04-26T02:06:08.863Z,42.82
2023-04-26T02:07:07.895Z,42.80
2023-04-26T02:08:08.898Z,42.81
2023-04-26T02:09:07.916Z,42.81
2023-04-26T02:10:08.946Z,42.79
2023-04-26T02:11:08.011Z,42.81
2023-04-26T02:12:09.020Z,42.79
2023-04-26T02:13:09.057Z,42.81
2023-04-26T02:14:09.074Z,42.85
2023-04-26T02:15:08.109Z,42.81
2023-04-26T02:16:08.173Z,42.83
2023-04-26T02:17:08.190Z,42.81
2023-04-26T02:18:08.261Z,42.81
2023-04-26T02:19:09.293Z,42.83
2023-04-26T02:20:09.306Z,42.80
2023-04-26T02:21:08.317Z,42.80
2023-04-26T02:22:09.381Z,42.83
2023-04-26T02:23:09.435Z,42.81
2023-04-26T02:24:08.428Z,42.81
2023-04-26T02:25:09.460Z,42.81
2023-04-26T02:26:09.487Z,42.82
2023-04-26T02:27:08.544Z,42.82
2023-04-26T02:28:09.578Z,42.84
2023-04-26T02:29:09.595Z,42.82
2023-04-26T02:30:09.622Z,42.83
2023-04-26T02:31:08.719Z,42.82
2023-04-26T02:32:09.700Z,42.85
2023-04-26T02:33:09.757Z,42.82
2023-04-26T02:34:08.763Z,42.81
2023-04-26T02:35:09.808Z,42.82
2023-04-26T02:36:09.856Z,42.84
2023-04-26T02:37:09.883Z,42.83
2023-04-26T02:38:09.954Z,42.84
2023-04-26T02:39:09.998Z,42.85
2023-04-26T02:40:09.972Z,42.85
2023-04-26T02:41:10.028Z,42.87
2023-04-26T02:42:09.556Z,42.84
2023-04-26T02:43:10.104Z,42.86
2023-04-26T02:44:10.128Z,42.84
2023-04-26T02:45:10.160Z,42.89
2023-04-26T02:46:09.255Z,42.88
2023-04-26T02:47:10.431Z,42.86
2023-04-26T02:48:09.355Z,42.87
2023-04-26T02:49:10.332Z,42.84
2023-04-26T02:50:10.389Z,42.84
2023-04-26T02:51:10.428Z,42.85
2023-04-26T02:52:10.460Z,42.84
2023-04-26T02:53:09.522Z,42.84
2023-04-26T02:54:10.602Z,42.85
2023-04-26T02:55:10.600Z,42.89
2023-04-26T02:56:10.663Z,42.85
2023-04-26T02:57:10.700Z,42.87
2023-04-26T02:58:10.775Z,42.86
2023-04-26T02:59:10.800Z,42.87
2023-04-26T03:00:10.850Z,42.86
2023-04-26T03:01:10.894Z,42.85
2023-04-26T03:02:09.954Z,42.87
2023-04-26T03:03:10.064Z,42.86
2023-04-26T03:04:10.160Z,42.87
2023-04-26T03:05:11.060Z,42.85
2023-04-26T03:06:10.098Z,42.87
2023-04-26T03:07:10.146Z,42.84
2023-04-26T03:08:11.182Z,42.87
2023-04-26T03:09:11.261Z,42.86
2023-04-26T03:10:11.299Z,42.86
2023-04-26T03:11:10.321Z,42.85
2023-04-26T03:12:11.360Z,42.89
2023-04-26T03:13:11.400Z,42.84
2023-04-26T03:14:11.467Z,42.84
2023-04-26T03:15:10.502Z,42.85
2023-04-26T03:16:10.546Z,42.83
2023-04-26T03:17:11.586Z,42.86
2023-04-26T03:18:11.691Z,42.85
2023-04-26T03:19:10.660Z,42.83
2023-04-26T03:20:10.720Z,42.83
2023-04-26T03:21:11.763Z,42.82
2023-04-26T03:22:11.807Z,42.86
2023-04-26T03:23:11.825Z,42.81
2023-04-26T03:24:11.895Z,42.80
2023-04-26T03:25:10.913Z,42.78
2023-04-26T03:26:11.967Z,42.76
2023-04-26T03:27:11.987Z,42.78
2023-04-26T03:28:12.029Z,42.76
2023-04-26T03:29:11.063Z,42.77
2023-04-26T03:30:12.105Z,42.77
2023-04-26T03:31:12.187Z,42.75
2023-04-26T03:32:12.285Z,42.77
2023-04-26T03:33:12.270Z,42.77
2023-04-26T03:34:12.225Z,42.72
2023-04-26T03:35:12.247Z,42.70
2023-04-26T03:36:11.244Z,42.67
2023-04-26T03:37:12.247Z,42.62
2023-04-26T03:38:11.235Z,42.61
2023-04-26T03:39:12.237Z,42.56
2023-04-26T03:40:12.230Z,42.54
2023-04-26T03:41:12.226Z,42.49
2023-04-26T03:42:12.315Z,42.48
2023-04-26T03:43:12.233Z,42.46
2023-04-26T03:44:11.263Z,42.45
2023-04-26T03:45:12.328Z,42.41
2023-04-26T03:46:12.408Z,42.39
2023-04-26T03:47:11.434Z,42.38
2023-04-26T03:48:12.564Z,42.37
2023-04-26T03:49:11.552Z,42.33
2023-04-26T03:50:11.598Z,42.26
2023-04-26T03:51:11.671Z,42.28
2023-04-26T03:52:12.736Z,42.24
2023-04-26T03:53:12.830Z,42.24
2023-04-26T03:54:12.863Z,42.24
2023-04-26T03:55:12.920Z,42.23
2023-04-26T03:56:12.970Z,42.23
2023-04-26T03:57:12.030Z,42.18
2023-04-26T03:58:13.111Z,42.18
2023-04-26T03:59:12.154Z,42.17
2023-04-26T04:00:12.230Z,42.13
2023-04-26T04:01:13.280Z,42.15
2023-04-26T04:02:13.430Z,42.11
2023-04-26T04:03:13.643Z,42.10
2023-04-26T04:04:12.741Z,42.09
2023-04-26T04:05:12.559Z,42.06
2023-04-26T04:06:13.545Z,42.07
2023-04-26T04:07:12.614Z,42.06
2023-04-26T04:08:12.667Z,42.01
2023-04-26T04:09:13.718Z,42.03
2023-04-26T04:10:14.042Z,42.01
2023-04-26T04:11:12.862Z,42.02
2023-04-26T04:12:13.924Z,42.02
2023-04-26T04:13:13.124Z,41.99
2023-04-26T04:14:14.061Z,41.98
2023-04-26T04:15:14.097Z,41.97
2023-04-26T04:16:14.147Z,41.96
2023-04-26T04:17:13.229Z,41.95
2023-04-26T04:18:13.356Z,41.93
2023-04-26T04:19:14.320Z,41.94
2023-04-26T04:20:14.374Z,41.92
2023-04-26T04:21:14.422Z,41.93
2023-04-26T04:22:13.501Z,41.90
2023-04-26T04:23:14.540Z,41.92
2023-04-26T04:24:14.589Z,41.90
2023-04-26T04:25:14.688Z,41.88
2023-04-26T04:26:14.683Z,41.90
2023-04-26T04:27:13.748Z,41.87
2023-04-26T04:28:14.804Z,41.86
2023-04-26T04:29:13.839Z,41.86
2023-04-26T04:30:15.034Z,41.85
2023-04-26T04:31:14.956Z,41.84
2023-04-26T04:32:14.985Z,41.82
2023-04-26T04:33:14.029Z,41.84
2023-04-26T04:34:14.079Z,41.83
2023-04-26T04:35:15.130Z,41.80
2023-04-26T04:36:14.189Z,41.80
2023-04-26T04:37:14.249Z,41.80
2023-04-26T04:38:15.298Z,41.78
2023-04-26T04:39:14.324Z,41.77
2023-04-26T04:40:14.387Z,41.79
2023-04-26T04:41:14.480Z,41.76
2023-04-26T04:42:14.483Z,41.75
2023-04-26T04:43:15.542Z,41.74
2023-04-26T04:44:15.576Z,41.71
2023-04-26T04:45:15.624Z,41.70
2023-04-26T04:46:14.704Z,41.70
2023-04-26T04:47:15.708Z,41.67
2023-04-26T04:48:15.731Z,41.64
2023-04-26T04:49:15.803Z,41.68
2023-04-26T04:50:15.851Z,41.63
2023-04-26T04:51:15.858Z,41.62
2023-04-26T04:52:16.248Z,41.64
2023-04-26T04:53:16.073Z,41.56
2023-04-26T04:54:16.068Z,41.56
2023-04-26T04:55:16.123Z,41.56
2023-04-26T04:56:16.213Z,41.54
2023-04-26T04:57:16.198Z,41.51
2023-04-26T04:58:16.200Z,41.54
2023-04-26T04:59:16.232Z,41.52
2023-04-26T05:00:16.296Z,41.50
2023-04-26T05:01:15.325Z,41.52
2023-04-26T05:02:15.553Z,41.49
2023-04-26T05:03:15.504Z,41.49
2023-04-26T05:04:15.583Z,41.51
2023-04-26T05:05:15.513Z,41.46
2023-04-26T05:06:16.424Z,41.48
2023-04-26T05:07:15.498Z,41.44
2023-04-26T05:08:16.494Z,41.47
2023-04-26T05:09:15.514Z,41.43
2023-04-26T05:10:16.552Z,41.44
2023-04-26T05:11:15.579Z,41.43
2023-04-26T05:12:16.597Z,41.43
2023-04-26T05:13:16.660Z,41.42
2023-04-26T05:14:16.661Z,41.39
2023-04-26T05:15:15.733Z,41.39
2023-04-26T05:16:16.742Z,41.50
2023-04-26T05:17:16.782Z,41.50
2023-04-26T05:18:16.909Z,41.58
2023-04-26T05:19:16.810Z,41.59
2023-04-26T05:20:15.934Z,41.66
2023-04-26T05:21:15.901Z,41.65
2023-04-26T05:22:15.901Z,41.70
2023-04-26T05:23:15.921Z,41.67
2023-04-26T05:24:15.920Z,41.71
2023-04-26T05:25:15.993Z,41.72
2023-04-26T05:26:16.973Z,41.76
2023-04-26T05:27:17.009Z,41.76
2023-04-26T05:28:17.028Z,41.78
2023-04-26T05:29:17.015Z,41.78
2023-04-26T05:30:17.027Z,41.80
2023-04-26T05:31:17.072Z,41.92
2023-04-26T05:32:17.070Z,42.01
2023-04-26T05:33:17.169Z,42.09
2023-04-26T05:34:17.297Z,42.34
2023-04-26T05:35:17.677Z,42.63
2023-04-26T05:36:17.268Z,42.34
2023-04-26T05:37:17.416Z,41.70
2023-04-26T05:38:17.618Z,42.12
2023-04-26T05:39:17.429Z,42.98
2023-04-26T05:40:17.426Z,42.56
2023-04-26T05:41:16.438Z,41.92
2023-04-26T05:42:18.196Z,42.43
2023-04-26T05:43:17.574Z,42.55
2023-04-26T05:44:16.771Z,42.63
2023-04-26T05:45:17.995Z,42.59
2023-04-26T05:46:18.217Z,42.62
2023-04-26T05:47:18.691Z,42.75
2023-04-26T05:48:16.760Z,42.64
2023-04-26T05:49:18.166Z,42.63
2023-04-26T05:50:17.037Z,42.79
2023-04-26T05:51:19.758Z,42.70
2023-04-26T05:52:18.610Z,41.93
2023-04-26T05:53:18.297Z,40.62
2023-04-26T05:54:18.359Z,38.89
2023-04-26T05:55:19.153Z,39.49
2023-04-26T05:57:35.794Z,41.09
2023-04-26T05:58:36.733Z,41.00
2023-04-26T05:59:36.735Z,40.96
2023-04-26T06:00:36.705Z,40.86
2023-04-26T06:01:36.709Z,40.66
2023-04-26T06:02:35.887Z,40.50
2023-04-26T06:03:37.274Z,40.51
2023-04-26T06:04:36.838Z,40.29
2023-04-26T06:05:36.726Z,40.29
2023-04-26T06:06:36.670Z,40.30
2023-04-26T06:07:35.652Z,40.28
2023-04-26T06:08:36.668Z,40.42
2023-04-26T06:09:36.653Z,40.37
2023-04-26T06:10:35.628Z,40.38
2023-04-26T06:11:35.636Z,40.34
2023-04-26T06:12:36.636Z,40.34
2023-04-26T06:13:35.621Z,40.32
2023-04-26T06:14:36.613Z,40.26
2023-04-26T06:15:35.602Z,39.75
2023-04-26T06:16:36.667Z,39.70
2023-04-26T06:17:36.673Z,39.74
2023-04-26T06:18:36.622Z,39.83
2023-04-26T06:19:36.591Z,39.76
2023-04-26T06:20:36.636Z,39.78
2023-04-26T06:21:35.772Z,39.65
2023-04-26T06:22:35.747Z,39.61
2023-04-26T06:23:35.808Z,39.55
2023-04-26T06:24:35.834Z,39.58
2023-04-26T06:25:36.912Z,39.45
2023-04-26T06:26:36.975Z,39.34
2023-04-26T06:27:35.983Z,39.34
2023-04-26T06:28:37.013Z,39.24
2023-04-26T06:29:37.059Z,39.22
2023-04-26T06:30:37.153Z,39.16
2023-04-26T06:31:36.234Z,39.06
2023-04-26T06:32:37.202Z,39.06
2023-04-26T06:33:37.230Z,38.96
2023-04-26T06:34:37.245Z,38.94
2023-04-26T06:35:37.268Z,38.92
2023-04-26T06:36:37.337Z,38.88
2023-04-26T06:37:37.379Z,38.81
2023-04-26T06:38:36.365Z,38.82
2023-04-26T06:39:37.400Z,38.72
2023-04-26T06:40:37.495Z,38.72
2023-04-26T06:41:37.470Z,38.65
2023-04-26T06:42:37.507Z,38.64
2023-04-26T06:43:37.577Z,38.62
2023-04-26T06:44:37.581Z,38.58
2023-04-26T06:45:36.598Z,38.60
2023-04-26T06:46:37.694Z,38.54
2023-04-26T06:47:37.710Z,38.52
2023-04-26T06:48:37.745Z,38.46
2023-04-26T06:49:37.749Z,38.48
2023-04-26T06:50:37.798Z,38.42
2023-04-26T06:51:37.871Z,38.35
2023-04-26T06:52:37.979Z,38.35
2023-04-26T06:53:38.021Z,38.28
2023-04-26T06:54:45.996Z,38.25
2023-04-26T06:55:37.937Z,38.27
2023-04-26T06:56:37.931Z,38.25
2023-04-26T06:57:36.958Z,38.19
2023-04-26T06:58:36.965Z,38.12
2023-04-26T06:59:37.919Z,38.14
2023-04-26T07:00:38.020Z,38.08
2023-04-26T07:01:37.932Z,38.04
2023-04-26T07:02:38.213Z,38.02
2023-04-26T07:03:37.980Z,38.01
2023-04-26T07:04:37.206Z,37.92
2023-04-26T07:05:37.886Z,37.99
2023-04-26T07:06:36.881Z,37.87
2023-04-26T07:07:36.880Z,37.85
2023-04-26T07:08:37.876Z,37.78
2023-04-26T07:09:37.922Z,37.72
2023-04-26T07:10:38.137Z,37.73
2023-04-26T07:11:36.915Z,37.78
2023-04-26T07:12:37.943Z,37.71
2023-04-26T07:13:38.455Z,37.71
2023-04-26T07:14:39.438Z,37.71
2023-04-26T07:15:38.454Z,37.69
2023-04-26T07:16:37.312Z,37.65
2023-04-26T07:17:38.214Z,37.64
2023-04-26T07:18:38.221Z,37.58
2023-04-26T07:19:37.218Z,37.58
2023-04-26T07:20:37.240Z,37.49
2023-04-26T07:21:37.237Z,37.58
2023-04-26T07:22:38.273Z,37.52
2023-04-26T07:23:38.286Z,37.46
2023-04-26T07:24:38.290Z,37.49
2023-04-26T07:25:38.362Z,37.45
2023-04-26T07:26:37.340Z,37.40
2023-04-26T07:27:38.345Z,37.37
2023-04-26T07:28:38.382Z,37.36
2023-04-26T07:29:38.545Z,37.33
2023-04-26T07:30:37.409Z,37.26
2023-04-26T07:31:37.422Z,37.20
2023-04-26T07:32:37.490Z,37.26
2023-04-26T07:33:38.618Z,37.20
2023-04-26T07:34:37.462Z,37.20
2023-04-26T07:35:38.495Z,37.16
2023-04-26T07:36:38.520Z,37.14
2023-04-26T07:37:38.528Z,37.17
2023-04-26T07:38:37.557Z,37.07
2023-04-26T07:39:38.565Z,37.12
2023-04-26T07:40:38.598Z,37.14
2023-04-26T07:41:38.762Z,37.07
2023-04-26T07:42:37.625Z,37.07
2023-04-26T07:43:38.683Z,37.07
2023-04-26T07:44:38.710Z,37.07
2023-04-26T07:45:37.746Z,37.06
2023-04-26T07:46:38.736Z,37.02
2023-04-26T07:47:38.881Z,36.99
2023-04-26T07:48:37.988Z,36.74
2023-04-26T07:49:38.828Z,36.82
2023-04-26T07:50:38.866Z,37.42
2023-04-26T07:51:38.896Z,37.68
2023-04-26T07:52:38.955Z,37.92
2023-04-26T07:53:39.005Z,38.03
2023-04-26T07:54:39.026Z,36.21
2023-04-26T07:55:38.176Z,35.60
2023-04-26T07:56:39.074Z,36.66
2023-04-26T07:57:39.092Z,37.30
2023-04-26T07:58:39.260Z,37.35
2023-04-26T07:59:39.092Z,37.97
2023-04-26T08:00:39.172Z,38.21
2023-04-26T08:01:39.183Z,38.56
2023-04-26T08:03:38.435Z,38.80
2023-04-26T08:04:39.355Z,38.92
2023-04-26T08:05:39.581Z,38.96
2023-04-26T08:06:39.156Z,39.02
2023-04-26T08:07:38.192Z,39.13
2023-04-26T08:08:38.134Z,39.17
2023-04-26T08:09:39.119Z,39.14
2023-04-26T08:10:38.116Z,39.15
2023-04-26T08:11:39.162Z,39.28
2023-04-26T08:12:39.166Z,39.24
2023-04-26T08:13:39.249Z,39.39
2023-04-26T08:14:39.231Z,39.42
2023-04-26T08:15:39.270Z,39.55
2023-04-26T08:16:38.417Z,39.63
2023-04-26T08:17:38.382Z,39.72
2023-04-26T08:18:39.404Z,39.75
2023-04-26T08:19:39.381Z,39.93
2023-04-26T08:20:39.402Z,39.97
2023-04-26T08:21:38.432Z,40.07
2023-04-26T08:22:39.429Z,40.17
2023-04-26T08:23:39.463Z,40.27
2023-04-26T08:24:39.478Z,40.24
2023-04-26T08:25:39.500Z,40.36
2023-04-26T08:26:39.497Z,40.40
2023-04-26T08:27:39.500Z,40.53
2023-04-26T08:28:38.547Z,40.54
2023-04-26T08:29:38.671Z,40.66
2023-04-26T08:30:39.508Z,40.77
2023-04-26T08:31:38.742Z,40.93
2023-04-26T08:32:38.615Z,40.82
2023-04-26T08:33:38.567Z,40.93
2023-04-26T08:34:38.500Z,40.94
2023-04-26T08:35:39.501Z,41.09
2023-04-26T08:36:38.492Z,41.20
2023-04-26T08:37:39.503Z,41.26
2023-04-26T08:38:39.499Z,41.19
2023-04-26T08:39:38.498Z,41.31
2023-04-26T08:40:39.609Z,41.34
2023-04-26T08:41:38.522Z,41.51
2023-04-26T08:42:39.535Z,41.54
2023-04-26T08:43:39.987Z,41.31
2023-04-26T08:44:39.639Z,40.93
2023-04-26T08:45:39.719Z,40.49
2023-04-26T08:46:39.767Z,40.41
2023-04-26T08:47:39.685Z,39.62
2023-04-26T08:48:38.682Z,40.33
2023-04-26T08:49:39.957Z,40.32
2023-04-26T08:50:38.728Z,40.27
2023-04-26T08:51:39.729Z,39.88
2023-04-26T08:52:38.762Z,40.41
2023-04-26T08:53:39.768Z,39.91
2023-04-26T08:54:39.846Z,39.90
2023-04-26T08:55:38.826Z,39.85
2023-04-26T08:56:39.895Z,40.31
2023-04-26T08:57:38.929Z,40.23
2023-04-26T08:58:40.078Z,40.26
2023-04-26T08:59:39.992Z,40.99
2023-04-26T09:00:39.062Z,40.69
2023-04-26T09:01:40.148Z,40.91
2023-04-26T09:02:40.334Z,41.06
2023-04-26T09:03:39.223Z,41.06
2023-04-26T09:04:40.355Z,41.09
2023-04-26T09:05:40.230Z,41.21
2023-04-26T09:06:40.278Z,41.36
2023-04-26T09:07:40.318Z,41.61
2023-04-26T09:08:40.510Z,41.74
2023-04-26T09:09:39.407Z,41.94
2023-04-26T09:10:40.397Z,42.13
2023-04-26T09:11:39.718Z,42.16
2023-04-26T09:12:39.436Z,42.27
2023-04-26T09:13:39.664Z,42.44
2023-04-26T09:14:40.396Z,42.45
2023-04-26T09:15:40.485Z,42.64
2023-04-26T09:16:39.475Z,42.71
2023-04-26T09:17:39.543Z,42.79
2023-04-26T09:18:40.536Z,42.76
2023-04-26T09:19:40.520Z,43.04
2023-04-26T09:20:40.510Z,43.04
2023-04-26T09:21:40.526Z,43.22
2023-04-26T09:22:40.514Z,43.02
2023-04-26T09:23:40.534Z,43.18
2023-04-26T09:24:39.527Z,43.05
2023-04-26T09:25:39.537Z,43.31
2023-04-26T09:26:39.567Z,43.74
2023-04-26T09:27:40.587Z,43.90
2023-04-26T09:28:39.569Z,43.87
2023-04-26T09:29:40.611Z,44.07
2023-04-26T09:30:40.671Z,44.15
2023-04-26T09:31:40.732Z,44.15
2023-04-26T09:32:40.771Z,44.34
2023-04-26T09:33:40.831Z,44.27
2023-04-26T09:34:40.801Z,44.40
2023-04-26T09:35:40.826Z,44.68
2023-04-26T09:36:39.817Z,44.59
2023-04-26T09:37:54.400Z,44.57
2023-04-26T09:38:40.854Z,44.59
2023-04-26T09:39:40.869Z,44.68
2023-04-26T09:40:40.813Z,44.91
2023-04-26T09:41:40.832Z,45.05
2023-04-26T09:42:40.790Z,45.31
2023-04-26T09:43:40.776Z,45.14
2023-04-26T09:44:39.770Z,45.32
2023-04-26T09:45:40.764Z,45.37
2023-04-26T09:46:40.797Z,45.92
2023-04-26T09:47:40.883Z,45.73
2023-04-26T09:48:40.849Z,45.75
2023-04-26T09:49:41.031Z,45.74
2023-04-26T09:50:39.741Z,45.03
2023-04-26T09:51:39.730Z,45.60
2023-04-26T09:52:39.720Z,45.49
2023-04-26T09:53:46.539Z,45.45
2023-04-26T09:54:41.571Z,45.25
2023-04-26T09:55:40.718Z,45.25
2023-04-26T09:56:40.695Z,45.21
2023-04-26T09:57:40.689Z,45.25
2023-04-26T09:58:40.724Z,45.52
2023-04-26T09:59:39.672Z,45.39
2023-04-26T10:00:40.696Z,45.51
2023-04-26T10:01:40.686Z,45.28
2023-04-26T10:02:39.719Z,45.28
2023-04-26T10:03:39.927Z,45.32
2023-04-26T10:04:40.668Z,45.24
2023-04-26T10:05:40.665Z,45.07
2023-04-26T10:06:39.707Z,45.08
2023-04-26T10:07:40.750Z,45.12
2023-04-26T10:08:40.820Z,44.97
2023-04-26T10:09:39.890Z,44.83
2023-04-26T10:10:39.956Z,44.93
2023-04-26T10:11:41.014Z,44.78
2023-04-26T10:12:40.037Z,44.75
2023-04-26T10:13:40.116Z,44.71
2023-04-26T10:14:40.182Z,44.54
2023-04-26T10:15:41.273Z,44.43
2023-04-26T10:16:41.463Z,44.32
2023-04-26T10:17:41.367Z,44.16
2023-04-26T10:18:40.399Z,44.12
2023-04-26T10:19:41.479Z,44.05
2023-04-26T10:20:41.528Z,43.97
2023-04-26T10:21:41.588Z,43.84
2023-04-26T10:22:41.633Z,43.72
2023-04-26T10:23:40.692Z,43.62
2023-04-26T10:24:41.739Z,43.40
2023-04-26T10:25:41.756Z,43.27
2023-04-26T10:26:41.791Z,43.18
2023-04-26T10:27:41.949Z,42.98
2023-04-26T10:28:41.888Z,42.85
2023-04-26T10:29:40.954Z,42.78
2023-04-26T10:30:42.005Z,42.66
2023-04-26T10:31:42.127Z,42.68
2023-04-26T10:32:42.156Z,42.62
2023-04-26T10:33:42.178Z,42.46
2023-04-26T10:34:42.258Z,42.43
2023-04-26T10:35:42.299Z,42.34
2023-04-26T10:36:42.357Z,42.29
2023-04-26T10:37:42.437Z,42.25
2023-04-26T10:38:42.481Z,42.19
2023-04-26T10:39:42.543Z,42.07
2023-04-26T10:40:42.706Z,42.10
2023-04-26T10:41:42.612Z,41.14
2023-04-26T10:42:42.630Z,41.30
2023-04-26T10:43:42.676Z,41.07
2023-04-26T10:44:41.698Z,39.71
2023-04-26T10:45:41.752Z,40.09
2023-04-26T10:46:43.024Z,40.15
2023-04-26T10:47:41.825Z,40.29
2023-04-26T10:48:41.840Z,40.89
2023-04-26T10:49:41.922Z,41.17
2023-04-26T10:50:41.945Z,41.31
2023-04-26T10:51:43.226Z,41.46
2023-04-26T10:52:41.996Z,41.54
2023-04-26T10:53:43.002Z,41.54
2023-04-26T10:54:42.988Z,41.56
2023-04-26T10:55:43.248Z,41.60
2023-04-26T10:56:43.020Z,41.65
2023-04-26T10:57:42.017Z,41.73
2023-04-26T10:58:41.980Z,41.67
2023-04-26T10:59:54.008Z,41.67
2023-04-26T11:00:42.987Z,41.71
2023-04-26T11:01:42.023Z,41.66
2023-04-26T11:02:42.019Z,41.69
2023-04-26T11:03:42.264Z,41.65
2023-04-26T11:04:42.023Z,41.58
2023-04-26T11:05:41.939Z,41.59
2023-04-26T11:06:42.943Z,41.54
2023-04-26T11:07:42.551Z,41.46
2023-04-26T11:08:42.919Z,41.40
2023-04-26T11:09:43.044Z,41.41
2023-04-26T11:10:43.013Z,41.37
2023-04-26T11:11:43.084Z,41.23
2023-04-26T11:12:43.153Z,41.32
2023-04-26T11:13:43.193Z,41.33
2023-04-26T11:14:43.254Z,41.31
2023-04-26T11:15:43.335Z,41.30
2023-04-26T11:16:44.218Z,41.34
2023-04-26T11:17:43.438Z,41.30
2023-04-26T11:18:43.435Z,41.32
2023-04-26T11:19:43.524Z,41.34
2023-04-26T11:20:43.526Z,41.23
2023-04-26T11:21:43.587Z,41.23
2023-04-26T11:22:43.622Z,41.19
2023-04-26T11:23:42.687Z,41.10
2023-04-26T11:24:43.691Z,41.11
2023-04-26T11:25:42.812Z,41.15
2023-04-26T11:26:43.746Z,41.06
2023-04-26T11:27:43.801Z,41.07
2023-04-26T11:28:43.834Z,41.15
2023-04-26T11:29:43.921Z,41.12
2023-04-26T11:30:43.532Z,41.00
2023-04-26T11:31:43.989Z,40.92
2023-04-26T11:32:44.008Z,40.88
2023-04-26T11:33:44.026Z,40.85
2023-04-26T11:34:44.066Z,40.59
2023-04-26T11:35:44.090Z,40.75
2023-04-26T11:36:44.132Z,40.82
2023-04-26T11:37:43.182Z,40.59
2023-04-26T11:38:43.224Z,40.78
2023-04-26T11:39:43.265Z,40.84
2023-04-26T11:40:44.323Z,40.77
2023-04-26T11:41:43.412Z,40.78
2023-04-26T11:42:44.434Z,40.78
2023-04-26T11:43:43.551Z,40.77
2023-04-26T11:44:45.697Z,40.84
2023-04-26T11:45:44.592Z,40.85
2023-04-26T11:46:44.672Z,40.85
2023-04-26T11:47:43.686Z,40.92
2023-04-26T11:48:43.644Z,41.00
2023-04-26T11:49:43.635Z,41.00
2023-04-26T11:50:44.637Z,41.10
2023-04-26T11:51:44.683Z,41.12
2023-04-26T11:52:44.668Z,41.12
2023-04-26T11:53:43.669Z,41.19
2023-04-26T11:54:44.689Z,41.19
2023-04-26T11:55:43.700Z,41.22
2023-04-26T11:56:44.710Z,41.24
2023-04-26T11:57:44.948Z,41.29
2023-04-26T11:58:44.756Z,41.33
2023-04-26T11:59:44.811Z,41.35
2023-04-26T12:00:44.824Z,41.42
2023-04-26T12:01:43.899Z,41.39
2023-04-26T12:02:44.947Z,41.41
2023-04-26T12:03:44.973Z,41.43
2023-04-26T12:04:44.295Z,41.43
2023-04-26T12:05:43.962Z,41.48
2023-04-26T12:06:43.998Z,41.49
2023-04-26T12:07:45.037Z,41.47
2023-04-26T12:08:45.074Z,41.46
2023-04-26T12:09:45.142Z,41.52
2023-04-26T12:10:45.177Z,41.57
2023-04-26T12:11:45.249Z,41.57
2023-04-26T12:12:45.307Z,41.53
2023-04-26T12:13:44.406Z,41.58
2023-04-26T12:14:45.406Z,41.57
2023-04-26T12:15:44.472Z,41.61
2023-04-26T12:16:45.540Z,41.55
2023-04-26T12:17:45.644Z,41.59
2023-04-26T12:18:45.632Z,41.56
2023-04-26T12:19:44.699Z,41.55
2023-04-26T12:20:44.753Z,41.60
2023-04-26T12:21:45.830Z,41.61
2023-04-26T12:22:45.871Z,41.58
2023-04-26T12:23:44.952Z,41.58
2023-04-26T12:24:45.992Z,41.54
2023-04-26T12:25:45.064Z,41.57
2023-04-26T12:26:46.147Z,41.54
2023-04-26T12:27:46.175Z,41.51
2023-04-26T12:28:45.233Z,41.52
2023-04-26T12:29:45.609Z,41.53
2023-04-26T12:30:45.393Z,41.48
2023-04-26T12:31:45.513Z,41.41
2023-04-26T12:32:46.568Z,40.52
2023-04-26T12:33:46.511Z,39.66
2023-04-26T12:34:46.527Z,38.72
2023-04-26T12:35:45.540Z,38.76
2023-04-26T12:36:46.630Z,38.61
2023-04-26T12:37:45.678Z,38.18
2023-04-26T12:38:46.642Z,38.04
2023-04-26T12:39:45.685Z,38.13
2023-04-26T12:40:46.729Z,37.95
2023-04-26T12:41:46.788Z,37.64
2023-04-26T12:42:46.789Z,37.23
2023-04-26T12:43:46.844Z,37.98
2023-04-26T12:44:46.900Z,38.18
2023-04-26T12:45:47.144Z,38.34
2023-04-26T12:46:46.974Z,38.65
2023-04-26T12:47:47.024Z,38.69
2023-04-26T12:48:46.981Z,39.09
2023-04-26T12:49:47.005Z,39.21
2023-04-26T12:50:46.033Z,39.34
2023-04-26T12:51:46.982Z,39.34
2023-04-26T12:52:46.013Z,39.51
2023-04-26T12:53:47.049Z,39.56
2023-04-26T12:54:47.118Z,39.68